AirNav   Air Wisconsin Airman Trainee
 
 1056 users online  

OG10 Mount Hope Airport
Lebanon, Oregon, USA

GOING TO LEBANON?


FAA INFORMATION EFFECTIVE 31 JANUARY 2019

Location

FAA Identifier: OG10
Lat/Long: 44-33-26.0000N / 122-49-34.0000W
44-33.433333N / 122-49.566667W
44.5572222 / -122.8261111
(estimated)
Elevation: 400 ft. / 122 m (estimated)
Variation: 18E (1995)
From city: 5 miles NE of LEBANON, OR
Time zone: UTC -8 (UTC -7 during Daylight Saving Time)
Zip code: 97355

Airport Operations

Airport use: Private use. Permission required prior to landing
Activation date: 09/1997
Control tower: no
ARTCC: SEATTLE CENTER
FSS: MC MINNVILLE FLIGHT SERVICE STATION
Attendance: UNATNDD
Segmented circle: no

Nearby radio navigation aids

VOR radial/distance  VOR name  Freq  Var
CVOr062/20.3CORVALLIS VOR/DME115.4018E
EUGr018/31.2EUGENE VORTAC112.9015E

 
NDB name  Hdg/Dist  Freq  Var  ID
LEWISBURG085/19.322515ELWG .-.. .-- --.

Airport Services

Runway Information

Runway 13/31

Dimensions: 1750 x 50 ft. / 533 x 15 m
Surface: turf
RUNWAY 13  RUNWAY 31
Traffic pattern: leftleft
Obstructions: 30 ft. pline, 1500 ft. from runway100 ft. hill, 3000 ft. from runway

Airport Ownership and Management from official FAA records

Ownership: Privately-owned
Owner: BILL & BOB LUND
39662 MT HOPE DR
LEBANON, OR 97355
Phone 541-926-3800
Manager: BILL & BOB LUND
240 2ND AVE SW
LEBANON, OR 97321
Phone 541-926-3800

Airport Operational Statistics

Aircraft based on the field: 3
Single engine airplanes: 2
Multi engine airplanes: 1
    

Additional Remarks

OWNER DESIRES ARPT NOT TO BE CHARTED.

Instrument Procedures

There are no published instrument procedures at OG10.

Some nearby airports with instrument procedures:

S12 - Albany Municipal Airport (11 nm NW)
KCVO - Corvallis Municipal Airport (20 nm W)
KSLE - McNary Field Airport (22 nm N)
KEUG - Mahlon Sweet Field Airport (31 nm SW)
77S - Hobby Field Airport (38 nm S)
 
Loc | Ops | Rwys | IFR | FBO | Links
Com | Nav | Svcs | Stats | Notes
Area around OG10 (Mount Hope Airport)
 
Road maps at: MapQuest Bing Google
 
Aerial photo
WARNING: Photo may not be current or correct
Aerial photo of OG10 (Mount Hope Airport)
Do you have a better or more recent aerial photo of Mount Hope Airport that you would like to share? If so, please send us your photo.

 
Sectional chart

 
Airport distance calculator
Flying to Mount Hope Airport? Find the distance to fly.

From to OG10

Sunrise and sunset
Times for 17-Feb-2019
 Local
(UTC-8)
 Zulu
(UTC)
Morning civil twilight06:3914:39
Sunrise07:0915:09
Sunset17:4101:41
Evening civil twilight18:1102:11

Current date and time
Zulu (UTC)  17-Feb-2019 17:12:19
Local (UTC-8)  17-Feb-2019 09:12:19
 
METAR
KCVO 
19nm W 
171704Z AUTO 00000KT 10SM SCT002 BKN040 OVC046 02/02 A3012 RMK AO2 FZRANO
KSLE 
22nm N 
171656Z 32003KT 10SM OVC007 02/00 A3012 RMK AO2 SLP200 T00220000
KEUG 
30nm SW 
171654Z 14003KT 10SM SCT013 BKN020 BKN045 02/01 A3011 RMK AO2 SLP197 T00220006 $
TAF
KSLE 
22nm N 
171404Z 1714/1812 18005KT P6SM OVC005 FM171700 VRB03KT P6SM OVC007 FM172000 36005KT P6SM SCT010 FM180600 VRB03KT P6SM BKN040
NOTAMs
Click for the latest NOTAMs
NOTAMs are issued by the DoD/FAA and will open in a separate window not controlled by AirNav.

 

 
 

Would you like to see your business listed on this page?

 If your business provides an interesting product or service to pilots, flight crews, aircraft, or users of the Mount Hope Airport, you should consider listing it here.  To start the listing process, click on the button below
 
Add a business
 

Other Pages about Mount Hope Airport

Update a link
 
Copyright © AirNav, LLC. All rights reserved. Privacy Policy  Contact